Airfield :
LOGIN :

Register | Disclaimer

   EN    FR    IT 

 










Legend :    VFR   Marginal VFR   IFR   Intensive IFR   Very Intensive IFR
Visi :
Ceiling :
>= 8 km
>= 3000ft
5 to 8 km
1000 to 3000 ft
1500m to 5 km
500 to 1000 ft
800 to 1500m
200 to 500 ft
< 800m
< 200 ft
Symbols :   Thunderstorms  Fog  Heavy snow  Heavy precipitations  Wind > 20 kt
SIGMETs :     Misc.  Thunderstorms  Icing  Turbulence  Mountain Waves  Volcanic Ashes






- Airport Elevation : 1906 ft
- IATA code : INN


LOWI - Innsbruck

CURRENT METAR :
  • 232220Z AUTO 26004KT 220V280 9999 NCD 19/14 Q1015

EXPIRED METARs :
  • 232150Z AUTO VRB03KT 9999 NCD 19/14 Q1015
  • 232120Z AUTO VRB02KT 9999 NCD 20/14 Q1015
  • 232050Z 08003KT 010V160 CAVOK 20/14 Q1015 NOSIG
  • 232020Z VRB02KT CAVOK 20/15 Q1015 NOSIG
  • 231950Z VRB02KT CAVOK 21/15 Q1015 NOSIG

TAF TAF LOWI
Valid from the 23 at 18:00 until the 24 at 18:00 UTC


231715Z 2318/2418 09008KT CAVOK TX28/2414Z TN14/2404Z
BECMG 2318/2320 27004KT
BECMG 2411/2413 12010G25KT FEW060CB SCT080
PROB40
TEMPO 2414/2418 30015G30KT TSRA



MET'MAP, your aeronautical weather chart ! - Copyright ORBIFLY December 2007 - Disclaimer

ORBIFLY MET'MAP TEAM :

Programming & Development : Alexandra Zaïnal
Concept & original design : Baudouin d'Aumeries
Assistance for programming : Marc-Olivier Méhu
Technical & hardware support : Manuel Goepfert

Contact : metmap@orbifly.com




SOURCES & CREDITS :

   NOAA